createdAt,value
2019-01-20T00:00:54.989Z,14.67
2019-01-20T00:03:24.496Z,11.50
2019-01-20T00:05:53.927Z,13.07
2019-01-20T00:08:24.649Z,11.77
2019-01-20T00:10:54.083Z,17.00
2019-01-20T00:13:23.550Z,17.73
2019-01-20T00:15:53.196Z,10.73
2019-01-20T00:18:22.989Z,15.37
2019-01-20T00:20:52.750Z,12.00
2019-01-20T00:23:23.789Z,13.80
2019-01-20T00:25:53.221Z,16.70
2019-01-20T00:28:22.722Z,15.63
2019-01-20T00:31:11.484Z,13.33
2019-01-20T00:33:40.945Z,12.43
2019-01-20T00:36:10.451Z,13.03
2019-01-20T00:38:39.848Z,15.43
2019-01-20T00:41:09.276Z,11.30
2019-01-20T00:43:38.675Z,13.60
2019-01-20T00:46:08.079Z,13.17
2019-01-20T00:48:37.474Z,15.47
2019-01-20T00:51:07.214Z,14.37
2019-01-20T00:53:38.363Z,11.90
2019-01-20T00:56:07.739Z,13.60
2019-01-20T00:58:37.679Z,11.03
2019-01-20T01:01:07.111Z,14.57
2019-01-20T01:03:37.380Z,14.83
2019-01-20T01:06:06.997Z,14.00
2019-01-20T01:08:36.520Z,11.70
2019-01-20T01:11:06.089Z,17.57
2019-01-20T01:13:35.551Z,16.27
2019-01-20T01:16:05.282Z,18.67
2019-01-20T01:18:35.000Z,15.17
2019-01-20T01:21:04.494Z,15.80
2019-01-20T01:23:34.047Z,20.20
2019-01-20T01:26:03.405Z,13.67
2019-01-20T01:28:32.916Z,14.90
2019-01-20T01:31:03.878Z,13.30
2019-01-20T01:33:33.430Z,20.83
2019-01-20T01:36:02.925Z,15.53
2019-01-20T01:38:32.391Z,13.57
2019-01-20T01:41:02.056Z,15.47
2019-01-20T01:43:31.615Z,17.70
2019-01-20T01:46:01.042Z,14.33
2019-01-20T01:48:30.435Z,16.10
2019-01-20T01:50:59.869Z,15.57
2019-01-20T01:53:48.622Z,17.00
2019-01-20T01:56:32.527Z,18.30
2019-01-20T01:59:01.993Z,15.13
2019-01-20T02:01:31.400Z,14.43
2019-01-20T02:04:00.994Z,22.93
2019-01-20T02:06:30.464Z,17.73
2019-01-20T02:08:59.994Z,17.83
2019-01-20T02:11:29.377Z,19.13
2019-01-20T02:13:59.473Z,17.53
2019-01-20T02:16:28.875Z,17.87
2019-01-20T02:18:58.721Z,21.03
2019-01-20T02:21:41.359Z,20.03
2019-01-20T02:24:10.832Z,17.13
2019-01-20T02:26:41.767Z,18.07
2019-01-20T02:29:11.243Z,18.83
2019-01-20T02:31:40.776Z,19.63
2019-01-20T02:34:10.266Z,17.70
2019-01-20T02:36:39.723Z,22.10
2019-01-20T02:39:10.746Z,30.07
2019-01-20T02:41:40.161Z,24.13
2019-01-20T02:44:10.587Z,23.97
2019-01-20T02:46:39.988Z,18.83
2019-01-20T02:49:09.394Z,22.73
2019-01-20T02:51:38.797Z,23.10
2019-01-20T02:54:08.211Z,25.53
2019-01-20T02:56:37.667Z,23.57
2019-01-20T02:59:07.207Z,24.47
2019-01-20T03:01:38.267Z,23.83
2019-01-20T03:04:07.805Z,21.63
2019-01-20T03:06:37.345Z,19.47
2019-01-20T03:09:09.098Z,22.83
2019-01-20T03:11:38.634Z,19.23
2019-01-20T03:14:08.134Z,22.60
2019-01-20T03:16:37.549Z,17.13
2019-01-20T03:19:06.972Z,19.00
2019-01-20T03:21:38.125Z,26.60
2019-01-20T03:24:07.738Z,18.00
2019-01-20T03:26:37.366Z,22.63
2019-01-20T03:29:06.790Z,19.10
2019-01-20T03:31:36.525Z,25.97
2019-01-20T03:34:07.703Z,19.10
2019-01-20T03:36:37.229Z,26.33
2019-01-20T03:39:07.497Z,22.97
2019-01-20T03:41:37.135Z,22.90
2019-01-20T03:44:07.498Z,21.77
2019-01-20T03:46:36.993Z,22.83
2019-01-20T03:49:06.470Z,22.60
2019-01-20T03:51:35.901Z,18.33
2019-01-20T03:54:05.810Z,22.43
2019-01-20T03:56:35.417Z,20.97
2019-01-20T03:59:17.463Z,23.20
2019-01-20T04:01:47.022Z,21.63
2019-01-20T04:04:16.385Z,21.13
2019-01-20T04:06:45.836Z,23.40
2019-01-20T04:09:15.275Z,22.67
2019-01-20T04:11:45.989Z,26.40
2019-01-20T04:14:15.521Z,26.23
2019-01-20T04:16:45.558Z,26.03
2019-01-20T04:19:14.920Z,26.70
2019-01-20T04:21:44.280Z,27.30
2019-01-20T04:24:13.691Z,28.27
2019-01-20T04:26:43.082Z,24.87
2019-01-20T04:29:12.578Z,26.43
2019-01-20T04:31:42.041Z,27.47
2019-01-20T04:34:11.689Z,29.47
2019-01-20T04:36:41.191Z,28.90
2019-01-20T04:39:10.756Z,32.10
2019-01-20T04:41:40.259Z,26.47
2019-01-20T04:44:09.658Z,32.17
2019-01-20T04:46:39.231Z,28.53
2019-01-20T04:49:08.718Z,27.50
2019-01-20T04:51:38.528Z,27.20
2019-01-20T04:54:08.087Z,25.77
2019-01-20T04:56:37.488Z,22.80
2019-01-20T04:59:06.883Z,19.23
2019-01-20T05:01:36.284Z,22.93
2019-01-20T05:04:06.315Z,19.47
2019-01-20T05:06:35.743Z,23.07
2019-01-20T05:09:06.936Z,22.63
2019-01-20T05:11:36.495Z,23.10
2019-01-20T05:14:05.937Z,27.63
2019-01-20T05:16:35.997Z,21.83
2019-01-20T05:19:05.443Z,31.47
2019-01-20T05:21:35.659Z,28.60
2019-01-20T05:24:10.007Z,27.47
2019-01-20T05:26:39.696Z,21.90
2019-01-20T05:29:09.135Z,26.20
2019-01-20T05:31:38.600Z,22.50
2019-01-20T05:34:08.110Z,21.20
2019-01-20T05:36:37.496Z,27.33
2019-01-20T05:39:07.621Z,26.43
2019-01-20T05:41:38.792Z,27.33
2019-01-20T05:44:08.266Z,25.50
2019-01-20T05:46:37.673Z,25.47
2019-01-20T05:49:07.355Z,31.07
2019-01-20T05:51:36.868Z,28.20
2019-01-20T05:54:06.403Z,26.40
2019-01-20T05:56:35.794Z,28.73
2019-01-20T05:59:05.255Z,28.63
2019-01-20T06:01:34.662Z,31.10
2019-01-20T06:04:04.316Z,26.73
2019-01-20T06:06:34.643Z,28.43
2019-01-20T06:09:06.507Z,30.47
2019-01-20T06:11:36.080Z,25.30
2019-01-20T06:14:05.766Z,26.40
2019-01-20T06:16:35.300Z,29.23
2019-01-20T06:19:04.993Z,30.30
2019-01-20T06:21:34.387Z,33.07
2019-01-20T06:24:04.091Z,32.67
2019-01-20T06:26:33.615Z,30.67
2019-01-20T06:29:03.084Z,40.20
2019-01-20T06:31:32.501Z,34.60
2019-01-20T06:34:02.080Z,34.13
2019-01-20T06:36:31.456Z,37.40
2019-01-20T06:39:00.922Z,34.80
2019-01-20T06:41:30.350Z,26.90
2019-01-20T06:43:59.744Z,34.37
2019-01-20T06:46:29.135Z,36.60
2019-01-20T06:48:58.558Z,31.17
2019-01-20T06:51:28.087Z,30.33
2019-01-20T06:53:57.495Z,29.23
2019-01-20T06:56:27.258Z,29.03
2019-01-20T06:58:56.666Z,25.50
2019-01-20T07:01:26.303Z,37.00
2019-01-20T07:03:55.975Z,37.03
2019-01-20T07:06:25.582Z,38.57
2019-01-20T07:08:55.211Z,44.57
2019-01-20T07:11:24.607Z,44.97
2019-01-20T07:13:54.083Z,39.97
2019-01-20T07:16:23.579Z,48.70
2019-01-20T07:18:54.782Z,46.70
2019-01-20T07:21:24.250Z,40.93
2019-01-20T07:23:53.654Z,43.03
2019-01-20T07:26:23.103Z,49.10
2019-01-20T07:28:52.722Z,42.43
2019-01-20T07:31:22.122Z,49.77
2019-01-20T07:33:51.587Z,41.30
2019-01-20T07:36:21.100Z,48.53
2019-01-20T07:38:50.663Z,61.67
2019-01-20T07:41:21.400Z,54.50
2019-01-20T07:43:50.930Z,47.53
2019-01-20T07:46:20.396Z,58.17
2019-01-20T07:48:49.792Z,49.43
2019-01-20T07:51:20.601Z,43.63
2019-01-20T07:53:50.077Z,50.03
2019-01-20T07:56:19.592Z,43.30
2019-01-20T07:58:49.178Z,49.10
2019-01-20T08:01:18.650Z,45.60
2019-01-20T08:03:48.022Z,56.77
2019-01-20T08:06:17.510Z,48.87
2019-01-20T08:08:47.045Z,52.80
2019-01-20T08:11:16.516Z,52.00
2019-01-20T08:13:45.887Z,58.10
2019-01-20T08:16:15.267Z,52.00
2019-01-20T08:18:44.631Z,52.77
2019-01-20T08:21:14.048Z,45.40
2019-01-20T08:23:43.723Z,47.47
2019-01-20T08:26:13.274Z,43.13
2019-01-20T08:28:42.792Z,42.87
2019-01-20T08:31:12.413Z,42.47
2019-01-20T08:33:41.760Z,45.80
2019-01-20T08:36:11.550Z,49.57
2019-01-20T08:38:40.904Z,48.83
2019-01-20T08:41:10.912Z,49.37
2019-01-20T08:43:40.436Z,50.27
2019-01-20T08:46:33.835Z,48.10
2019-01-20T08:49:03.306Z,42.30
2019-01-20T08:51:32.711Z,35.70
2019-01-20T08:54:02.383Z,36.10
2019-01-20T08:56:31.848Z,37.37
2019-01-20T08:59:01.249Z,36.10
2019-01-20T09:01:30.654Z,37.87
2019-01-20T09:04:00.075Z,36.20
2019-01-20T09:06:29.547Z,41.97
2019-01-20T09:08:59.333Z,38.50
2019-01-20T09:11:28.737Z,36.20
2019-01-20T09:13:58.127Z,39.70
2019-01-20T09:19:08.058Z,36.33
2019-01-20T09:21:39.352Z,39.13
2019-01-20T09:24:08.900Z,39.73
2019-01-20T09:26:39.811Z,36.80
2019-01-20T09:29:09.198Z,36.87
2019-01-20T09:31:38.662Z,46.93
2019-01-20T09:34:08.063Z,38.53
2019-01-20T09:36:37.548Z,37.13
2019-01-20T09:39:11.394Z,37.67
2019-01-20T09:41:40.915Z,40.20
2019-01-20T09:44:10.449Z,40.83
2019-01-20T09:46:39.859Z,38.83
2019-01-20T09:49:09.243Z,41.53
2019-01-20T09:51:38.876Z,44.00
2019-01-20T09:54:09.931Z,38.43
2019-01-20T09:56:39.544Z,41.00
2019-01-20T09:59:08.964Z,40.13
2019-01-20T10:01:38.359Z,44.50
2019-01-20T10:04:07.902Z,46.30
2019-01-20T10:06:37.439Z,45.57
2019-01-20T10:09:07.614Z,42.30
2019-01-20T10:11:37.067Z,45.97
2019-01-20T10:14:06.513Z,40.83
2019-01-20T10:16:35.917Z,41.83
2019-01-20T10:19:05.406Z,45.27
2019-01-20T10:21:36.409Z,42.27
2019-01-20T10:24:05.837Z,41.43
2019-01-20T10:26:37.881Z,40.83
2019-01-20T10:29:06.592Z,42.57
2019-01-20T10:31:36.144Z,40.67
2019-01-20T10:34:05.906Z,39.90
2019-01-20T10:36:35.370Z,49.07
2019-01-20T10:39:09.868Z,39.80
2019-01-20T10:41:53.483Z,42.60
2019-01-20T10:44:23.068Z,39.37
2019-01-20T10:46:52.766Z,39.07
2019-01-20T10:49:22.329Z,41.47
2019-01-20T10:51:51.872Z,39.03
2019-01-20T10:54:21.281Z,40.17
2019-01-20T10:56:50.890Z,35.37
2019-01-20T10:59:20.424Z,35.00
2019-01-20T11:01:49.981Z,35.70
2019-01-20T11:04:19.508Z,38.40
2019-01-20T11:06:49.132Z,33.60
2019-01-20T11:09:18.895Z,36.60
2019-01-20T11:11:48.452Z,37.53
2019-01-20T11:14:18.009Z,33.93
2019-01-20T11:16:47.547Z,37.43
2019-01-20T11:19:17.104Z,35.73
2019-01-20T11:21:46.660Z,49.23
2019-01-20T11:24:16.155Z,39.43
2019-01-20T11:26:45.763Z,33.90
2019-01-20T11:29:15.499Z,34.83
2019-01-20T11:31:45.921Z,33.20
2019-01-20T11:34:15.380Z,34.57
2019-01-20T11:36:44.761Z,36.83
2019-01-20T11:39:14.223Z,34.60
2019-01-20T11:41:43.870Z,36.93
2019-01-20T11:44:17.060Z,38.90
2019-01-20T11:46:45.047Z,41.10
2019-01-20T11:49:14.523Z,40.20
2019-01-20T11:51:44.264Z,40.23
2019-01-20T11:54:13.862Z,40.47
2019-01-20T11:56:43.383Z,39.73
2019-01-20T11:59:12.925Z,46.27
2019-01-20T12:01:42.470Z,41.30
2019-01-20T12:04:11.909Z,38.53
2019-01-20T12:06:41.378Z,33.67
2019-01-20T12:09:10.932Z,34.97
2019-01-20T12:11:40.477Z,38.73
2019-01-20T12:14:09.889Z,40.97
2019-01-20T12:16:39.388Z,34.83
2019-01-20T12:19:08.781Z,39.37
2019-01-20T12:21:38.334Z,33.63
2019-01-20T12:24:07.866Z,29.53
2019-01-20T12:26:38.951Z,36.00
2019-01-20T12:29:08.504Z,40.30
2019-01-20T12:31:37.905Z,31.17
2019-01-20T12:34:07.478Z,31.57
2019-01-20T12:36:36.966Z,22.97
2019-01-20T12:39:09.117Z,26.27
2019-01-20T12:41:38.919Z,26.07
2019-01-20T12:44:08.444Z,22.50
2019-01-20T12:46:38.100Z,27.90
2019-01-20T12:49:07.662Z,16.67
2019-01-20T12:51:37.174Z,23.57
2019-01-20T12:54:06.695Z,15.57
2019-01-20T12:56:36.239Z,17.37
2019-01-20T12:59:05.699Z,22.33
2019-01-20T13:01:35.146Z,13.37
2019-01-20T13:04:04.859Z,12.27
2019-01-20T13:06:34.217Z,11.90
2019-01-20T13:09:05.237Z,22.07
2019-01-20T13:11:34.658Z,22.13
2019-01-20T13:14:04.412Z,22.50
2019-01-20T13:16:33.839Z,21.90
2019-01-20T13:19:03.242Z,19.87
2019-01-20T13:21:32.712Z,20.00
2019-01-20T13:24:02.224Z,22.17
2019-01-20T13:26:31.652Z,23.23
2019-01-20T13:29:01.051Z,21.90
2019-01-20T13:31:30.569Z,20.77
2019-01-20T13:34:00.127Z,21.47
2019-01-20T13:36:29.691Z,21.43
2019-01-20T13:39:00.859Z,21.03
2019-01-20T13:41:30.288Z,24.37
2019-01-20T13:43:59.820Z,22.50
2019-01-20T13:46:30.793Z,21.10
2019-01-20T13:49:00.562Z,22.13
2019-01-20T13:51:29.987Z,22.47
2019-01-20T13:53:59.795Z,25.73
2019-01-20T13:56:29.243Z,25.47
2019-01-20T13:58:58.634Z,22.40
2019-01-20T14:01:28.061Z,24.30
2019-01-20T14:03:57.524Z,23.97
2019-01-20T14:06:26.952Z,25.30
2019-01-20T14:08:56.428Z,25.47
2019-01-20T14:11:25.846Z,31.47
2019-01-20T14:13:55.286Z,24.83
2019-01-20T14:16:25.039Z,21.10
2019-01-20T14:18:54.922Z,20.03
2019-01-20T14:21:24.424Z,23.57
2019-01-20T14:23:54.019Z,24.23
2019-01-20T14:26:23.399Z,28.83
2019-01-20T14:28:52.786Z,24.30
2019-01-20T14:31:22.229Z,28.33
2019-01-20T14:33:51.674Z,25.40
2019-01-20T14:36:22.138Z,26.43
2019-01-20T14:38:51.695Z,24.47
2019-01-20T14:41:21.311Z,29.60
2019-01-20T14:43:50.955Z,26.60
2019-01-20T14:46:20.531Z,25.73
2019-01-20T14:48:50.046Z,28.13
2019-01-20T14:51:19.599Z,26.70
2019-01-20T14:53:48.986Z,30.17
2019-01-20T14:56:25.782Z,23.30
2019-01-20T14:58:55.185Z,28.40
2019-01-20T15:01:24.750Z,29.87
2019-01-20T15:03:54.150Z,28.10
2019-01-20T15:06:23.908Z,29.07
2019-01-20T15:08:53.395Z,32.27
2019-01-20T15:11:23.185Z,29.97
2019-01-20T15:13:52.700Z,31.50
2019-01-20T15:16:22.096Z,31.50
2019-01-20T15:18:51.453Z,35.33
2019-01-20T15:21:21.012Z,33.13
2019-01-20T15:23:50.531Z,33.00
2019-01-20T15:26:20.234Z,32.57
2019-01-20T15:28:49.741Z,36.03
2019-01-20T15:31:19.219Z,34.00
2019-01-20T15:33:48.726Z,33.83
2019-01-20T15:36:18.132Z,36.10
2019-01-20T15:38:47.580Z,38.30
2019-01-20T15:41:17.089Z,36.87
2019-01-20T15:43:46.518Z,37.23
2019-01-20T15:46:15.986Z,36.37
2019-01-20T15:48:45.447Z,36.90
2019-01-20T15:51:15.015Z,36.17
2019-01-20T15:53:46.027Z,28.37
2019-01-20T15:56:15.456Z,33.97
2019-01-20T15:58:44.866Z,39.40
2019-01-20T16:01:14.491Z,35.47
2019-01-20T16:03:44.030Z,40.63
2019-01-20T16:06:13.391Z,36.83
2019-01-20T16:08:42.797Z,38.63
2019-01-20T16:11:12.344Z,36.70
2019-01-20T16:13:41.912Z,39.27
2019-01-20T16:16:11.411Z,37.53
2019-01-20T16:18:40.869Z,36.13
2019-01-20T16:21:10.423Z,40.57
2019-01-20T16:23:39.819Z,36.50
2019-01-20T16:26:09.559Z,36.87
2019-01-20T16:28:39.127Z,34.80
2019-01-20T16:31:08.614Z,36.00
2019-01-20T16:33:38.292Z,34.37
2019-01-20T16:36:07.694Z,35.00
2019-01-20T16:38:56.532Z,37.53
2019-01-20T16:41:25.980Z,35.10
2019-01-20T16:43:55.356Z,42.60
2019-01-20T16:46:24.909Z,33.10
2019-01-20T16:48:54.509Z,36.03
2019-01-20T16:51:25.092Z,33.63
2019-01-20T16:53:54.643Z,36.47
2019-01-20T16:56:24.059Z,38.23
2019-01-20T16:58:53.428Z,35.20
2019-01-20T17:01:23.608Z,36.00
2019-01-20T17:03:53.038Z,34.33
2019-01-20T17:06:22.454Z,32.13
2019-01-20T17:08:52.145Z,37.43
2019-01-20T17:11:21.685Z,35.43
2019-01-20T17:13:51.309Z,37.73
2019-01-20T17:16:20.708Z,36.90
2019-01-20T17:18:50.203Z,35.80
2019-01-20T17:21:19.664Z,34.83
2019-01-20T17:23:49.098Z,38.50
2019-01-20T17:26:18.582Z,37.30
2019-01-20T17:28:48.001Z,37.97
2019-01-20T17:31:18.495Z,38.60
2019-01-20T17:33:47.931Z,41.00
2019-01-20T17:36:17.435Z,37.77
2019-01-20T17:38:46.803Z,39.57
2019-01-20T17:41:17.774Z,37.67
2019-01-20T17:43:47.143Z,41.23
2019-01-20T17:46:16.948Z,38.83
2019-01-20T17:48:47.860Z,38.67
2019-01-20T17:51:17.486Z,39.50
2019-01-20T17:53:46.866Z,50.43
2019-01-20T17:56:19.942Z,47.03
2019-01-20T17:58:49.525Z,46.07
2019-01-20T18:01:18.947Z,51.67
2019-01-20T18:03:48.523Z,52.83
2019-01-20T18:06:17.991Z,50.20
2019-01-20T18:08:47.485Z,47.17
2019-01-20T18:11:16.896Z,46.80
2019-01-20T18:13:46.422Z,49.53
2019-01-20T18:16:15.816Z,46.73
2019-01-20T18:18:46.119Z,51.77
2019-01-20T18:21:16.027Z,42.10
2019-01-20T18:23:45.467Z,39.03
2019-01-20T18:26:14.819Z,37.60
2019-01-20T18:28:44.244Z,40.13
2019-01-20T18:31:13.759Z,40.70
2019-01-20T18:33:43.328Z,40.03
2019-01-20T18:36:12.762Z,46.87
2019-01-20T18:38:43.849Z,46.63
2019-01-20T18:41:13.364Z,45.00
2019-01-20T18:43:42.971Z,50.87
2019-01-20T18:46:12.329Z,48.73
2019-01-20T18:48:41.891Z,52.10
2019-01-20T18:51:11.339Z,47.70
2019-01-20T18:53:42.028Z,45.27
2019-01-20T18:56:11.468Z,49.70
2019-01-20T18:58:41.019Z,53.67
2019-01-20T19:01:11.096Z,53.10
2019-01-20T19:03:40.728Z,47.93
2019-01-20T19:06:10.213Z,46.07
2019-01-20T19:08:39.774Z,46.13
2019-01-20T19:11:09.296Z,41.73
2019-01-20T19:13:38.755Z,41.43
2019-01-20T19:16:09.097Z,48.93
2019-01-20T19:18:52.088Z,46.33
2019-01-20T19:21:21.680Z,43.63
2019-01-20T19:23:51.087Z,47.07
2019-01-20T19:26:20.752Z,47.27
2019-01-20T19:28:50.256Z,50.03
2019-01-20T19:31:19.649Z,48.57
2019-01-20T19:33:49.103Z,48.00
2019-01-20T19:36:18.675Z,47.97
2019-01-20T19:38:49.574Z,51.73
2019-01-20T19:41:19.053Z,47.97
2019-01-20T19:43:48.438Z,52.47
2019-01-20T19:46:17.978Z,54.03
2019-01-20T19:48:47.602Z,55.00
2019-01-20T19:51:16.998Z,53.70
2019-01-20T19:53:46.388Z,53.37
2019-01-20T19:56:15.865Z,46.00
2019-01-20T19:58:45.323Z,49.90
2019-01-20T20:01:14.805Z,50.47
2019-01-20T20:03:44.438Z,50.50
2019-01-20T20:06:13.927Z,46.33
2019-01-20T20:08:43.901Z,50.40
2019-01-20T20:11:13.532Z,47.23
2019-01-20T20:13:42.943Z,45.93
2019-01-20T20:16:15.167Z,48.23
2019-01-20T20:18:57.384Z,47.57
2019-01-20T20:21:26.777Z,42.47
2019-01-20T20:23:56.869Z,45.73
2019-01-20T20:26:27.971Z,55.23
2019-01-20T20:28:58.170Z,47.57
2019-01-20T20:31:27.567Z,52.40
2019-01-20T20:33:56.978Z,51.87
2019-01-20T20:36:26.610Z,48.87
2019-01-20T20:38:56.010Z,72.30
2019-01-20T20:41:26.959Z,48.80
2019-01-20T20:43:56.384Z,42.83
2019-01-20T20:46:30.718Z,49.97
2019-01-20T20:48:58.611Z,50.90
2019-01-20T20:51:28.026Z,52.63
2019-01-20T20:53:57.422Z,54.37
2019-01-20T20:56:28.877Z,47.80
2019-01-20T20:58:58.402Z,48.27
2019-01-20T21:01:27.759Z,41.13
2019-01-20T21:03:57.223Z,42.33
2019-01-20T21:06:26.585Z,47.47
2019-01-20T21:08:55.996Z,55.33
2019-01-20T21:11:25.494Z,47.93
2019-01-20T21:13:54.967Z,47.10
2019-01-20T21:16:24.335Z,53.37
2019-01-20T21:18:55.770Z,57.67
2019-01-20T21:21:26.617Z,57.23
2019-01-20T21:23:56.246Z,54.50
2019-01-20T21:26:27.374Z,60.53
2019-01-20T21:28:56.828Z,68.77
2019-01-20T21:31:26.264Z,63.67
2019-01-20T21:34:08.223Z,64.27
2019-01-20T21:36:37.658Z,60.20
2019-01-20T21:39:07.768Z,57.47
2019-01-20T21:41:37.214Z,63.10
2019-01-20T21:44:06.815Z,51.97
2019-01-20T21:46:36.184Z,56.10
2019-01-20T21:49:07.235Z,55.60
2019-01-20T21:51:36.765Z,58.80
2019-01-20T21:54:06.227Z,54.33
2019-01-20T21:56:35.585Z,45.20
2019-01-20T21:59:05.360Z,47.07
2019-01-20T22:01:35.113Z,48.13
2019-01-20T22:04:04.896Z,50.23
2019-01-20T22:06:34.322Z,50.70
2019-01-20T22:09:05.260Z,47.53
2019-01-20T22:11:36.166Z,47.17
2019-01-20T22:14:05.708Z,46.37
2019-01-20T22:16:35.074Z,46.57
2019-01-20T22:19:04.615Z,44.93
2019-01-20T22:21:34.046Z,52.97
2019-01-20T22:24:03.518Z,55.10
2019-01-20T22:26:32.875Z,50.33
2019-01-20T22:29:02.287Z,47.50
2019-01-20T22:31:31.647Z,44.73
2019-01-20T22:34:01.159Z,49.17
2019-01-20T22:36:30.597Z,56.73
2019-01-20T22:39:00.094Z,54.53
2019-01-20T22:41:29.522Z,50.07
2019-01-20T22:43:58.994Z,54.60
2019-01-20T22:46:28.359Z,56.10
2019-01-20T22:48:57.758Z,55.63
2019-01-20T22:51:27.154Z,57.47
2019-01-20T22:53:59.511Z,51.63
2019-01-20T22:56:30.095Z,52.87
2019-01-20T22:58:59.530Z,52.70
2019-01-20T23:01:29.817Z,52.87
2019-01-20T23:03:59.327Z,47.40
2019-01-20T23:06:28.852Z,55.47
2019-01-20T23:08:58.220Z,49.93
2019-01-20T23:11:27.694Z,47.10
2019-01-20T23:13:57.197Z,49.47
2019-01-20T23:16:26.731Z,52.30
2019-01-20T23:18:56.157Z,49.00
2019-01-20T23:21:25.876Z,48.23
2019-01-20T23:23:55.316Z,49.60
2019-01-20T23:26:24.783Z,48.40
2019-01-20T23:28:54.315Z,48.47
2019-01-20T23:31:23.923Z,47.60
2019-01-20T23:33:53.427Z,45.87
2019-01-20T23:36:22.892Z,49.93
2019-01-20T23:38:52.396Z,49.83
2019-01-20T23:41:21.868Z,50.63
2019-01-20T23:43:51.311Z,52.20
2019-01-20T23:46:20.829Z,47.50
2019-01-20T23:48:50.319Z,51.63
2019-01-20T23:51:19.966Z,47.90
2019-01-20T23:53:49.329Z,46.70
2019-01-20T23:56:18.799Z,44.90
2019-01-20T23:58:48.164Z,41.23
